sensor_id;sensor_type;location;lat;lon;timestamp;P1;durP1;ratioP1;P2;durP2;ratioP2
30337;SDS011;17143;51.888;5.408;2023-06-10T00:11:10;7.43;;;4.20;;
30337;SDS011;17143;51.888;5.408;2023-06-10T00:26:12;5.87;;;4.53;;
30337;SDS011;17143;51.888;5.408;2023-06-10T00:41:15;6.87;;;4.80;;
30337;SDS011;17143;51.888;5.408;2023-06-10T00:56:18;5.97;;;4.70;;
30337;SDS011;17143;51.888;5.408;2023-06-10T01:11:21;5.17;;;4.57;;
30337;SDS011;17143;51.888;5.408;2023-06-10T01:26:28;6.33;;;4.83;;
30337;SDS011;17143;51.888;5.408;2023-06-10T01:41:33;10.90;;;5.00;;
30337;SDS011;17143;51.888;5.408;2023-06-10T01:56:36;6.67;;;4.57;;
30337;SDS011;17143;51.888;5.408;2023-06-10T02:11:38;5.17;;;4.10;;
30337;SDS011;17143;51.888;5.408;2023-06-10T02:26:40;5.80;;;4.07;;
30337;SDS011;17143;51.888;5.408;2023-06-10T02:41:43;7.20;;;4.83;;
30337;SDS011;17143;51.888;5.408;2023-06-10T02:56:45;6.40;;;4.13;;
30337;SDS011;17143;51.888;5.408;2023-06-10T03:11:53;5.10;;;3.37;;
30337;SDS011;17143;51.888;5.408;2023-06-10T03:26:55;4.90;;;3.60;;
30337;SDS011;17143;51.888;5.408;2023-06-10T03:41:58;6.20;;;3.53;;
30337;SDS011;17143;51.888;5.408;2023-06-10T03:57:01;6.13;;;3.90;;
30337;SDS011;17143;51.888;5.408;2023-06-10T04:12:06;6.17;;;3.50;;
30337;SDS011;17143;51.888;5.408;2023-06-10T04:27:08;6.43;;;3.50;;
30337;SDS011;17143;51.888;5.408;2023-06-10T04:42:11;6.13;;;3.80;;
30337;SDS011;17143;51.888;5.408;2023-06-10T04:57:14;9.03;;;3.20;;
30337;SDS011;17143;51.888;5.408;2023-06-10T05:12:16;5.80;;;3.20;;
30337;SDS011;17143;51.888;5.408;2023-06-10T05:27:18;5.00;;;2.67;;
30337;SDS011;17143;51.888;5.408;2023-06-10T05:42:20;4.17;;;3.13;;
30337;SDS011;17143;51.888;5.408;2023-06-10T05:57:22;7.30;;;3.20;;
30337;SDS011;17143;51.888;5.408;2023-06-10T06:12:24;3.77;;;2.97;;
30337;SDS011;17143;51.888;5.408;2023-06-10T06:27:26;4.07;;;3.07;;
30337;SDS011;17143;51.888;5.408;2023-06-10T06:42:28;4.50;;;2.77;;
30337;SDS011;17143;51.888;5.408;2023-06-10T06:57:38;5.47;;;3.03;;
30337;SDS011;17143;51.888;5.408;2023-06-10T07:12:40;4.53;;;3.10;;
30337;SDS011;17143;51.888;5.408;2023-06-10T07:27:42;5.60;;;2.90;;
30337;SDS011;17143;51.888;5.408;2023-06-10T07:42:44;4.33;;;2.93;;
30337;SDS011;17143;51.888;5.408;2023-06-10T07:57:46;5.30;;;3.17;;
30337;SDS011;17143;51.888;5.408;2023-06-10T08:12:48;11.00;;;3.77;;
30337;SDS011;17143;51.888;5.408;2023-06-10T08:27:50;5.27;;;3.50;;
30337;SDS011;17143;51.888;5.408;2023-06-10T08:42:57;5.10;;;3.77;;
30337;SDS011;17143;51.888;5.408;2023-06-10T08:58:05;6.83;;;3.40;;
30337;SDS011;17143;51.888;5.408;2023-06-10T09:13:08;5.03;;;3.37;;
30337;SDS011;17143;51.888;5.408;2023-06-10T09:28:14;4.10;;;3.20;;
30337;SDS011;17143;51.888;5.408;2023-06-10T09:43:16;5.07;;;3.40;;
30337;SDS011;17143;51.888;5.408;2023-06-10T09:58:19;4.60;;;3.20;;
30337;SDS011;17143;51.888;5.408;2023-06-10T10:13:42;3.77;;;3.03;;
30337;SDS011;17143;51.888;5.408;2023-06-10T10:28:48;3.90;;;3.00;;
30337;SDS011;17143;51.888;5.408;2023-06-10T10:43:59;4.47;;;3.20;;
30337;SDS011;17143;51.888;5.408;2023-06-10T10:59:04;4.37;;;3.00;;
30337;SDS011;17143;51.888;5.408;2023-06-10T11:14:08;7.03;;;3.30;;
30337;SDS011;17143;51.888;5.408;2023-06-10T11:29:10;3.80;;;2.70;;
30337;SDS011;17143;51.888;5.408;2023-06-10T11:44:12;7.97;;;3.30;;
30337;SDS011;17143;51.888;5.408;2023-06-10T11:59:15;4.07;;;2.80;;
30337;SDS011;17143;51.888;5.408;2023-06-10T12:14:17;3.30;;;2.80;;
30337;SDS011;17143;51.888;5.408;2023-06-10T12:29:52;3.73;;;3.30;;
30337;SDS011;17143;51.888;5.408;2023-06-10T12:44:54;3.23;;;2.80;;
30337;SDS011;17143;51.888;5.408;2023-06-10T12:59:56;3.23;;;2.93;;
30337;SDS011;17143;51.888;5.408;2023-06-10T13:14:58;3.27;;;2.93;;
30337;SDS011;17143;51.888;5.408;2023-06-10T13:30:00;4.60;;;3.20;;
30337;SDS011;17143;51.888;5.408;2023-06-10T13:45:02;4.23;;;3.37;;
30337;SDS011;17143;51.888;5.408;2023-06-10T14:00:05;3.57;;;2.87;;
30337;SDS011;17143;51.888;5.408;2023-06-10T14:15:09;3.20;;;2.57;;
30337;SDS011;17143;51.888;5.408;2023-06-10T14:30:11;4.10;;;2.60;;
30337;SDS011;17143;51.888;5.408;2023-06-10T14:45:14;3.80;;;2.90;;
30337;SDS011;17143;51.888;5.408;2023-06-10T15:00:16;2.93;;;2.63;;
30337;SDS011;17143;51.888;5.408;2023-06-10T15:15:19;3.07;;;2.77;;
30337;SDS011;17143;51.888;5.408;2023-06-10T15:30:21;3.53;;;3.00;;
30337;SDS011;17143;51.888;5.408;2023-06-10T15:45:23;4.90;;;3.10;;
30337;SDS011;17143;51.888;5.408;2023-06-10T16:00:25;3.53;;;3.23;;
30337;SDS011;17143;51.888;5.408;2023-06-10T16:15:27;3.93;;;2.40;;
30337;SDS011;17143;51.888;5.408;2023-06-10T16:30:29;4.37;;;2.67;;
30337;SDS011;17143;51.888;5.408;2023-06-10T16:45:31;3.93;;;2.77;;
30337;SDS011;17143;51.888;5.408;2023-06-10T17:00:34;4.50;;;3.07;;
30337;SDS011;17143;51.888;5.408;2023-06-10T17:15:36;3.73;;;2.83;;
30337;SDS011;17143;51.888;5.408;2023-06-10T17:30:38;4.30;;;3.30;;
30337;SDS011;17143;51.888;5.408;2023-06-10T17:45:40;4.53;;;2.97;;
30337;SDS011;17143;51.888;5.408;2023-06-10T18:00:42;3.53;;;3.10;;
30337;SDS011;17143;51.888;5.408;2023-06-10T18:15:44;4.53;;;3.53;;
30337;SDS011;17143;51.888;5.408;2023-06-10T18:30:46;4.23;;;3.00;;
30337;SDS011;17143;51.888;5.408;2023-06-10T18:45:48;4.87;;;2.93;;
30337;SDS011;17143;51.888;5.408;2023-06-10T19:00:50;3.57;;;2.90;;
30337;SDS011;17143;51.888;5.408;2023-06-10T19:15:52;3.47;;;3.17;;
30337;SDS011;17143;51.888;5.408;2023-06-10T19:30:54;4.17;;;2.93;;
30337;SDS011;17143;51.888;5.408;2023-06-10T19:45:56;4.37;;;3.73;;
30337;SDS011;17143;51.888;5.408;2023-06-10T20:00:58;3.90;;;3.30;;
30337;SDS011;17143;51.888;5.408;2023-06-10T20:16:00;4.13;;;3.57;;
30337;SDS011;17143;51.888;5.408;2023-06-10T20:31:02;4.37;;;3.13;;
30337;SDS011;17143;51.888;5.408;2023-06-10T20:46:04;4.50;;;3.50;;
30337;SDS011;17143;51.888;5.408;2023-06-10T21:01:07;5.33;;;3.10;;
30337;SDS011;17143;51.888;5.408;2023-06-10T21:16:09;3.57;;;3.20;;
30337;SDS011;17143;51.888;5.408;2023-06-10T21:31:11;4.63;;;3.70;;
30337;SDS011;17143;51.888;5.408;2023-06-10T21:46:13;5.77;;;4.03;;
30337;SDS011;17143;51.888;5.408;2023-06-10T22:01:15;6.63;;;4.47;;
30337;SDS011;17143;51.888;5.408;2023-06-10T22:16:17;4.87;;;3.80;;
30337;SDS011;17143;51.888;5.408;2023-06-10T22:31:20;6.20;;;4.07;;
30337;SDS011;17143;51.888;5.408;2023-06-10T22:46:22;4.73;;;4.20;;
30337;SDS011;17143;51.888;5.408;2023-06-10T23:01:24;5.67;;;4.33;;
30337;SDS011;17143;51.888;5.408;2023-06-10T23:16:26;5.97;;;4.37;;
30337;SDS011;17143;51.888;5.408;2023-06-10T23:31:28;5.33;;;3.80;;
30337;SDS011;17143;51.888;5.408;2023-06-10T23:46:33;5.37;;;4.20;;
